< < Back
Terminal Aerodrome Forecast


Current Version              Previous Versions:   1  2  3  4  5  6  7  8  9  

Terminal Aerodrome Forecast

602
FTUS42 KTAE 271700
TAFABY
TAF
KABY 271737Z 2718/2818 26007KT P6SM SCT040
     FM280200 22004KT P6SM SKC
     FM281400 27011KT P6SM SCT030=



Latest METAR

192
SAUS70 KWBC 280800 RRG
MTRABY
METAR KABY 280753Z 23006KT 9SM CLR 26/24 A2998 RMK AO2 SLP149
T02560244


USA.gov is the U.S. government's official web portal to all federal, state and local government web resources and services.